Time;durP1;ratioP1;P1;durP2;ratioP2;P2;SDS_P1;SDS_P2;PMS_P1;PMS_P2;Temp;Humidity;BMP_temperature;BMP_pressure;BME280_temperature;BME280_humidity;BME280_pressure;Samples;Min_cycle;Max_cycle;Signal;HPM_P1;HPM_P2
2023/05/19 00:01:08;;;;;;;5.63;2.50;;;;;;;14.40;98.57;100006.19;5088707;28;20406;-18
2023/05/19 00:03:39;;;;;;;5.88;2.58;;;;;;;14.35;99.18;99992.72;5088823;28;20044;-19
2023/05/19 00:06:07;;;;;;;6.72;2.80;;;;;;;14.42;98.06;99998.72;5088707;28;20465;-20
2023/05/19 00:08:33;;;;;;;;;;;;;;;14.41;97.46;100002.47;5089016;28;20512;-19
2023/05/19 00:10:58;;;;;;;9.45;2.60;;;;;;;14.39;97.63;99993.84;5088354;28;20004;-20
2023/05/19 00:13:24;;;;;;;5.15;2.50;;;;;;;14.43;97.66;99992.31;5088419;28;21321;-20
2023/05/19 00:15:50;;;;;;;4.88;2.30;;;;;;;14.35;97.77;99987.34;5088497;28;20460;-20
2023/05/19 00:18:16;;;;;;;4.53;2.58;;;;;;;14.27;97.61;99975.16;5088494;28;20114;-19
2023/05/19 00:20:42;;;;;;;4.82;2.70;;;;;;;14.29;98.38;99982.16;5088099;28;20054;-19
2023/05/19 00:23:08;;;;;;;7.05;2.55;;;;;;;14.35;96.75;99984.66;5088295;28;20046;-19
2023/05/19 00:25:33;;;;;;;7.43;2.80;;;;;;;14.28;97.12;99975.97;5088353;28;20052;-19
2023/05/19 00:27:59;;;;;;;6.95;2.90;;;;;;;14.31;97.79;99980.03;5088030;28;20032;-19
2023/05/19 00:30:24;;;;;;;7.80;2.67;;;;;;;14.27;97.43;99980.53;5088095;28;20490;-18
2023/05/19 00:32:50;;;;;;;4.82;2.55;;;;;;;14.35;96.91;99976.63;5088111;28;20032;-19
2023/05/19 00:35:15;;;;;;;7.00;2.80;;;;;;;14.37;97.36;99979.88;5087878;28;20028;-19
2023/05/19 00:37:41;;;;;;;5.20;2.85;;;;;;;14.42;96.02;99985.28;5069699;28;20024;-20
2023/05/19 00:40:07;;;;;;;6.75;2.83;;;;;;;14.19;97.05;99967.53;5087882;28;20031;-20
2023/05/19 00:42:33;;;;;;;7.78;2.80;;;;;;;14.35;96.16;99983.88;5087562;28;20028;-18
2023/05/19 00:44:58;;;;;;;5.65;2.70;;;;;;;14.31;96.54;99991.59;5087555;28;20024;-19
2023/05/19 00:47:24;;;;;;;6.88;2.88;;;;;;;14.43;96.73;99983.44;5088033;28;20054;-19
2023/05/19 00:49:49;;;;;;;6.63;2.90;;;;;;;14.46;95.76;99985.63;5087717;28;20024;-22
2023/05/19 00:52:15;;;;;;;5.88;2.90;;;;;;;14.35;96.39;99984.66;5086551;28;20726;-19
2023/05/19 00:54:41;;;;;;;4.95;2.55;;;;;;;14.40;96.65;99987.41;5087283;28;20047;-19
2023/05/19 00:57:07;;;;;;;6.20;2.85;;;;;;;14.39;95.48;99983.13;5087273;28;20411;-19
2023/05/19 00:59:32;;;;;;;6.35;3.10;;;;;;;14.39;96.05;99993.84;5087674;28;20529;-19
2023/05/19 01:01:58;;;;;;;6.20;2.80;;;;;;;14.51;94.51;99987.59;5087569;28;20020;-19
2023/05/19 01:04:24;;;;;;;5.85;2.70;;;;;;;14.44;95.12;99996.63;5087398;28;20028;-19
2023/05/19 01:06:53;;;;;;;5.70;2.78;;;;;;;14.42;94.81;99993.34;5087458;28;20089;-19
2023/05/19 01:09:23;;;;;;;6.63;2.65;;;;;;;14.40;94.85;99984.72;5087398;28;20596;-26
2023/05/19 01:11:52;;;;;;;9.48;4.05;;;;;;;14.40;95.95;99992.78;5087102;28;20023;-24
2023/05/19 01:14:19;;;;;;;4.97;3.08;;;;;;;14.19;96.88;99988.97;5087374;28;20043;-19
2023/05/19 01:17:04;;;;;;;6.00;2.70;;;;;;;14.36;95.11;99998.88;5087421;28;20453;-19
2023/05/19 01:19:55;;;;;;;10.30;4.75;;;;;;;14.24;95.36;99997.13;5087440;28;20035;-19
2023/05/19 01:22:41;;;;;;;12.85;5.55;;;;;;;14.22;96.25;100003.75;5087244;28;20031;-20
2023/05/19 01:25:31;;;;;;;10.82;5.43;;;;;;;14.20;96.57;100013.94;5087098;28;20040;-19
2023/05/19 01:28:08;;;;;;;6.65;3.88;;;;;;;14.22;97.09;100006.44;5087236;28;20024;-20
2023/05/19 01:30:40;;;;;;;6.72;3.85;;;;;;;14.05;98.13;100009.94;5086632;28;20518;-19
2023/05/19 01:33:08;;;;;;;7.00;3.35;;;;;;;14.01;99.29;99998.06;5086981;28;20020;-20
2023/05/19 01:35:34;;;;;;;;;;;;;;;13.89;100.00;100005.38;5087290;28;20028;-21
2023/05/19 01:38:00;;;;;;;6.40;3.45;;;;;;;13.70;100.00;100006.66;5087068;28;19912;-20
2023/05/19 01:40:28;;;;;;;7.28;3.38;;;;;;;13.56;100.00;99988.19;5086753;28;20146;-19
2023/05/19 01:42:56;;;;;;;5.47;3.20;;;;;;;13.59;100.00;99997.63;5086990;28;20028;-20
2023/05/19 01:45:22;;;;;;;7.15;3.63;;;;;;;13.66;100.00;100007.13;5086501;28;20028;-19
2023/05/19 01:47:53;;;;;;;7.43;3.33;;;;;;;13.60;100.00;99997.38;5086949;28;20012;-19
2023/05/19 01:50:19;;;;;;;10.35;5.20;;;;;;;13.72;100.00;99999.19;5086742;28;20043;-19
2023/05/19 01:52:44;;;;;;;7.13;3.50;;;;;;;13.54;100.00;100000.22;5086750;28;20080;-20
2023/05/19 01:55:10;;;;;;;6.00;4.55;;;;;;;13.51;100.00;100009.53;5086755;28;20059;-20
2023/05/19 01:57:46;;;;;;;5.78;3.80;;;;;;;13.46;100.00;100001.41;5086589;28;20036;-20
2023/05/19 02:00:23;;;;;;;5.90;3.60;;;;;;;13.59;100.00;100003.78;5086835;28;20036;-19
2023/05/19 02:03:06;;;;;;;8.65;3.58;;;;;;;13.45;100.00;100005.16;5086725;28;20088;-23
2023/05/19 02:05:41;;;;;;;15.90;6.57;;;;;;;13.49;100.00;100000.13;5086687;28;20031;-19
2023/05/19 02:08:37;;;;;;;11.20;4.80;;;;;;;13.69;100.00;100002.34;5086613;28;20032;-19
2023/05/19 02:11:13;;;;;;;10.20;5.05;;;;;;;13.59;100.00;100000.31;5086582;28;20036;-19
2023/05/19 02:13:43;;;;;;;10.38;4.95;;;;;;;13.68;100.00;99998.06;5086537;28;20020;-19
2023/05/19 02:16:12;;;;;;;9.45;4.68;;;;;;;13.50;100.00;100002.53;5086383;28;20035;-19
2023/05/19 02:18:38;;;;;;;7.55;4.53;;;;;;;13.39;100.00;99990.03;5086047;28;20036;-19
2023/05/19 02:21:04;;;;;;;6.13;3.70;;;;;;;13.59;100.00;99998.44;5086482;28;20806;-21
2023/05/19 02:23:29;;;;;;;9.40;4.60;;;;;;;13.51;100.00;99995.34;5079479;28;20021;-20
2023/05/19 02:25:55;;;;;;;9.88;5.00;;;;;;;13.59;100.00;100003.00;5066067;28;20033;-19
2023/05/19 02:28:20;;;;;;;15.02;5.63;;;;;;;13.52;100.00;100002.31;5066015;28;20032;-19
2023/05/19 02:30:46;;;;;;;7.60;4.00;;;;;;;13.53;100.00;100010.13;5066582;28;20457;-19
2023/05/19 02:33:11;;;;;;;7.03;3.63;;;;;;;13.50;100.00;100021.28;5066041;28;20039;-19
2023/05/19 02:35:36;;;;;;;8.05;3.85;;;;;;;13.42;100.00;100016.31;5066177;28;20044;-19
2023/05/19 02:38:02;;;;;;;6.82;3.78;;;;;;;13.46;100.00;100012.94;5065956;28;20438;-18
2023/05/19 02:40:27;;;;;;;7.95;3.70;;;;;;;13.39;100.00;100011.44;5065839;28;20025;-19
2023/05/19 02:42:53;;;;;;;10.48;4.35;;;;;;;13.68;99.41;100012.25;5065629;28;20033;-19
2023/05/19 02:45:18;;;;;;;12.57;4.95;;;;;;;13.55;99.66;100016.06;5066065;28;20041;-26
2023/05/19 02:47:44;;;;;;;9.07;4.88;;;;;;;13.54;100.00;100019.75;5065684;28;20530;-20
2023/05/19 02:50:09;;;;;;;8.05;4.22;;;;;;;13.51;100.00;100019.44;5065773;28;20423;-20
2023/05/19 02:52:35;;;;;;;8.57;4.80;;;;;;;13.72;98.69;100020.63;5065648;28;20542;-21
2023/05/19 02:55:00;;;;;;;7.80;3.80;;;;;;;13.60;99.32;100024.16;5065930;28;20032;-20
2023/05/19 02:57:26;;;;;;;6.95;3.88;;;;;;;13.52;100.00;100021.06;5065882;28;20027;-19
2023/05/19 02:59:51;;;;;;;7.88;4.22;;;;;;;13.66;98.19;100025.88;5065563;28;20034;-20
2023/05/19 03:02:17;;;;;;;7.88;3.85;;;;;;;13.66;99.72;100015.16;5065696;28;20059;-20
2023/05/19 03:04:42;;;;;;;8.57;3.95;;;;;;;13.61;99.67;100020.44;5065450;28;20074;-19
2023/05/19 03:07:09;;;;;;;6.25;3.78;;;;;;;13.49;100.00;100016.19;5065768;28;20531;-19
2023/05/19 03:09:36;;;;;;;7.82;3.72;;;;;;;13.50;99.31;100010.56;5065747;28;20028;-19
2023/05/19 03:12:03;;;;;;;6.15;3.97;;;;;;;13.84;98.60;100024.06;5065582;28;20029;-19
2023/05/19 03:14:29;;;;;;;7.43;3.53;;;;;;;13.69;98.75;100034.50;5065743;28;20024;-20
2023/05/19 03:16:58;;;;;;;5.35;3.40;;;;;;;13.55;99.68;100016.06;5068259;28;20070;-19
2023/05/19 03:19:24;;;;;;;6.38;3.38;;;;;;;13.59;100.00;100041.31;5069180;28;20109;-19
2023/05/19 03:21:50;;;;;;;7.85;4.00;;;;;;;13.68;100.00;100044.41;5069210;28;20020;-19
2023/05/19 03:24:16;;;;;;;6.10;3.75;;;;;;;13.69;100.00;100042.53;5068996;28;20448;-20
2023/05/19 03:26:41;;;;;;;9.25;4.10;;;;;;;13.90;98.63;100038.38;5068942;28;20565;-20
2023/05/19 03:29:07;;;;;;;6.20;4.10;;;;;;;13.93;96.87;100049.41;5069162;28;20074;-23
2023/05/19 03:31:32;;;;;;;6.07;3.60;;;;;;;13.98;98.04;100046.84;5068700;28;20112;-20
2023/05/19 03:33:58;;;;;;;9.32;4.35;;;;;;;14.15;97.49;100059.44;5068782;28;20048;-19
2023/05/19 03:36:23;;;;;;;6.80;3.58;;;;;;;14.09;98.54;100058.53;5068850;28;20081;-19
2023/05/19 03:38:48;;;;;;;6.65;4.00;;;;;;;14.17;98.02;100049.28;5069030;28;20103;-19
2023/05/19 03:41:14;;;;;;;8.93;4.10;;;;;;;14.26;98.80;100063.91;5069050;28;20029;-19
2023/05/19 03:43:39;;;;;;;9.18;4.20;;;;;;;14.29;99.47;100057.28;5068591;28;20049;-19
2023/05/19 03:46:05;;;;;;;6.72;3.80;;;;;;;14.32;98.66;100062.13;5068859;28;20012;-19
2023/05/19 03:48:30;;;;;;;6.60;3.90;;;;;;;14.32;100.00;100062.94;5068241;28;20055;-19
2023/05/19 03:50:56;;;;;;;6.55;3.80;;;;;;;14.29;98.26;100062.63;5068702;28;20028;-18
2023/05/19 03:53:22;;;;;;;8.65;4.45;;;;;;;14.29;100.00;100068.81;5068132;28;20056;-19
2023/05/19 03:55:49;;;;;;;6.32;3.88;;;;;;;14.15;99.19;100051.41;5068730;28;20029;-19
2023/05/19 03:58:15;;;;;;;6.95;3.92;;;;;;;14.22;100.00;100074.34;5068523;28;20028;-19
2023/05/19 04:00:41;;;;;;;6.47;4.10;;;;;;;14.25;100.00;100063.09;5068300;28;20029;-19
2023/05/19 04:03:07;;;;;;;9.30;4.55;;;;;;;14.18;100.00;100067.84;5068509;28;20021;-19
2023/05/19 04:05:33;;;;;;;10.35;4.55;;;;;;;14.35;98.29;100073.19;5082979;28;20181;-19
2023/05/19 04:07:58;;;;;;;8.63;4.00;;;;;;;14.32;98.08;100068.31;5088306;28;20587;-20
2023/05/19 04:10:24;;;;;;;7.07;4.28;;;;;;;14.40;98.44;100070.56;5088376;28;20028;-19
2023/05/19 04:12:49;;;;;;;10.40;5.47;;;;;;;14.52;99.54;100085.81;5088697;28;20032;-20
2023/05/19 04:15:15;;;;;;;7.55;4.60;;;;;;;14.66;98.38;100073.69;5088047;28;20112;-19
2023/05/19 04:17:40;;;;;;;9.02;4.93;;;;;;;14.77;98.16;100083.56;5088380;28;20033;-19
2023/05/19 04:20:06;;;;;;;6.47;4.38;;;;;;;14.84;96.39;100076.13;5088090;28;20047;-19
2023/05/19 04:22:32;;;;;;;7.47;4.53;;;;;;;14.88;98.06;100079.13;5088084;28;20455;-21
2023/05/19 04:24:58;;;;;;;7.65;4.53;;;;;;;15.06;98.77;100078.03;5088162;28;20027;-20
2023/05/19 04:27:26;;;;;;;8.27;4.80;;;;;;;15.08;97.65;100081.28;5087587;28;20027;-20
2023/05/19 04:29:52;;;;;;;12.35;4.68;;;;;;;15.16;97.30;100075.50;5088113;28;20036;-19
2023/05/19 04:32:18;;;;;;;11.40;6.03;;;;;;;15.07;96.69;100085.81;5087850;28;20032;-21
2023/05/19 04:34:46;;;;;;;9.88;5.32;;;;;;;15.24;96.66;100087.66;5087686;28;20040;-19
2023/05/19 04:37:12;;;;;;;;;;;;;;;15.55;93.85;100096.94;5088442;28;20486;-19
2023/05/19 04:39:42;;;;;;;23.30;17.60;;;;;;;15.42;93.92;100091.91;5088025;28;19923;-19
2023/05/19 04:42:09;;;;;;;11.43;6.30;;;;;;;15.61;94.85;100087.03;5087759;28;20031;-19
2023/05/19 04:44:36;;;;;;;7.30;4.72;;;;;;;15.63;95.58;100103.72;5087774;28;20035;-19
2023/05/19 04:47:02;;;;;;;7.68;4.72;;;;;;;15.81;94.29;100094.53;5087607;28;20105;-19
2023/05/19 04:49:27;;;;;;;10.13;5.60;;;;;;;16.02;93.42;100101.78;5087293;28;20456;-19
2023/05/19 04:51:53;;;;;;;11.02;5.32;;;;;;;15.99;93.38;100113.03;5087168;28;20024;-23
2023/05/19 04:54:18;;;;;;;8.38;4.55;;;;;;;16.09;92.62;100116.88;5087618;28;20021;-19
2023/05/19 04:56:44;;;;;;;8.32;4.88;;;;;;;15.91;93.33;100105.41;5087558;28;20047;-20
2023/05/19 04:59:09;;;;;;;11.23;5.25;;;;;;;16.09;93.42;100111.50;5086711;28;20050;-19
2023/05/19 05:01:39;;;;;;;9.68;5.20;;;;;;;16.16;93.32;100109.41;5087188;28;20020;-19
2023/05/19 05:04:05;;;;;;;7.78;4.85;;;;;;;16.16;93.77;100106.72;5087569;28;20028;-19
2023/05/19 05:06:30;;;;;;;7.13;4.70;;;;;;;16.19;91.54;100117.78;5087465;28;20028;-19
2023/05/19 05:08:56;;;;;;;14.57;6.95;;;;;;;16.06;92.82;100126.28;5087284;28;20024;-19
2023/05/19 05:11:22;;;;;;;14.07;7.05;;;;;;;16.14;91.82;100125.84;5087304;28;20017;-19
2023/05/19 05:13:48;;;;;;;13.75;5.70;;;;;;;16.11;91.51;100123.63;5086740;28;20123;-19
2023/05/19 05:16:14;;;;;;;10.63;5.85;;;;;;;16.30;92.57;100134.84;5086896;28;20062;-21
2023/05/19 05:18:39;;;;;;;8.70;5.20;;;;;;;16.58;92.19;100141.00;5087079;28;20027;-21
2023/05/19 05:21:06;;;;;;;7.95;4.60;;;;;;;16.64;88.05;100137.28;5087107;28;20387;-20
2023/05/19 05:23:32;;;;;;;13.18;5.70;;;;;;;16.68;89.51;100152.66;5087327;28;20422;-18
2023/05/19 05:25:57;;;;;;;9.05;5.50;;;;;;;16.74;88.10;100144.66;5086818;28;20016;-19
2023/05/19 05:28:23;;;;;;;6.97;4.85;;;;;;;16.53;88.90;100154.41;5087126;28;20039;-19
2023/05/19 05:30:49;;;;;;;8.52;5.28;;;;;;;16.72;90.18;100158.38;5087072;28;20062;-19
2023/05/19 05:33:16;;;;;;;11.85;6.30;;;;;;;16.74;88.19;100161.59;5086864;28;20077;-20
2023/05/19 05:35:41;;;;;;;12.50;6.82;;;;;;;16.77;89.16;100155.69;5087028;28;20031;-19
2023/05/19 05:38:07;;;;;;;13.45;6.50;;;;;;;16.77;90.51;100161.09;5086080;28;20028;-23
2023/05/19 05:40:32;;;;;;;18.55;9.35;;;;;;;16.88;90.12;100164.72;5086631;28;20081;-19
2023/05/19 05:42:58;;;;;;;13.43;6.55;;;;;;;16.83;90.79;100164.66;5086789;28;20422;-19
2023/05/19 05:45:23;;;;;;;14.50;7.43;;;;;;;16.83;91.11;100165.47;5086790;28;20399;-24
2023/05/19 05:47:50;;;;;;;13.52;7.72;;;;;;;16.99;91.24;100166.41;5086630;28;20425;-19
2023/05/19 05:50:16;;;;;;;13.48;8.63;;;;;;;17.23;88.10;100172.22;5086483;28;20016;-19
2023/05/19 05:52:45;;;;;;;9.65;6.47;;;;;;;17.06;87.38;100158.09;5086815;28;20040;-20
2023/05/19 05:55:11;;;;;;;8.18;4.78;;;;;;;17.16;86.72;100166.25;5086453;28;20024;-19
2023/05/19 05:57:37;;;;;;;7.30;4.10;;;;;;;17.41;83.96;100180.97;5086686;28;20028;-20
2023/05/19 06:00:09;;;;;;;8.05;5.07;;;;;;;17.30;85.46;100174.69;5086495;28;20028;-18
2023/05/19 06:02:35;;;;;;;9.27;5.28;;;;;;;17.30;85.45;100176.56;5086773;28;20064;-19
2023/05/19 06:05:01;;;;;;;7.78;5.05;;;;;;;17.30;86.22;100177.38;5086836;28;20035;-19
2023/05/19 06:07:26;;;;;;;10.18;5.03;;;;;;;17.34;84.72;100159.59;5085046;28;20032;-20
2023/05/19 06:09:52;;;;;;;10.45;6.28;;;;;;;17.48;86.94;100184.22;5085446;28;20115;-19
2023/05/19 06:12:17;;;;;;;13.07;7.20;;;;;;;17.70;87.13;100181.38;5086581;28;20073;-18
2023/05/19 06:14:43;;;;;;;9.18;5.80;;;;;;;17.55;84.07;100173.19;5086206;28;20116;-19
2023/05/19 06:17:08;;;;;;;8.88;6.03;;;;;;;17.82;85.61;100191.94;5086547;28;20027;-19
2023/05/19 06:19:33;;;;;;;12.15;6.45;;;;;;;17.86;82.22;100187.66;5086325;28;20574;-19
2023/05/19 06:21:59;;;;;;;12.38;6.88;;;;;;;18.02;85.42;100183.09;5086402;28;20028;-19
2023/05/19 06:24:25;;;;;;;9.25;6.32;;;;;;;18.32;82.41;100190.47;5086519;28;20020;-19
2023/05/19 06:26:51;;;;;;;8.98;5.97;;;;;;;18.59;82.50;100192.13;5085991;28;20020;-20
2023/05/19 06:29:16;;;;;;;11.07;6.00;;;;;;;18.64;82.99;100192.94;5086244;28;20024;-19
2023/05/19 06:31:42;;;;;;;10.38;6.22;;;;;;;18.74;81.45;100197.56;5086069;28;20023;-19
2023/05/19 06:34:11;;;;;;;9.68;5.30;;;;;;;18.95;81.08;100203.78;5086404;28;20426;-20
2023/05/19 06:36:36;;;;;;;9.43;6.05;;;;;;;19.30;78.24;100198.63;5086186;28;20109;-28
2023/05/19 06:39:02;;;;;;;10.20;6.35;;;;;;;19.42;77.03;100197.22;5086300;28;20757;-19
2023/05/19 06:41:27;;;;;;;8.95;4.90;;;;;;;18.98;75.49;100197.03;5086119;28;20426;-21
2023/05/19 06:43:53;;;;;;;7.40;5.43;;;;;;;18.93;79.37;100194.34;5086423;28;20695;-19
2023/05/19 06:46:18;;;;;;;8.90;5.53;;;;;;;19.17;78.41;100197.28;5086172;28;20020;-19
2023/05/19 06:48:43;;;;;;;11.27;6.43;;;;;;;19.25;76.86;100196.75;5086231;28;20161;-19
2023/05/19 06:51:09;;;;;;;10.35;6.78;;;;;;;19.24;74.79;100214.03;5087900;28;20027;-19
2023/05/19 06:53:34;;;;;;;10.07;6.82;;;;;;;19.40;76.56;100204.00;5088933;28;20055;-18
2023/05/19 06:56:00;;;;;;;10.63;6.43;;;;;;;19.47;77.30;100204.50;5089648;28;20119;-20
2023/05/19 06:58:26;;;;;;;12.45;7.15;;;;;;;19.78;77.36;100205.28;5089773;28;20513;-20
2023/05/19 07:00:51;;;;;;;11.48;7.95;;;;;;;19.68;73.96;100197.16;5089621;28;20667;-19
2023/05/19 07:03:16;;;;;;;12.77;8.07;;;;;;;19.86;71.62;100191.16;5089585;28;20028;-19
2023/05/19 07:05:42;;;;;;;12.70;7.53;;;;;;;20.05;73.20;100199.47;5089308;28;20035;-19
2023/05/19 07:08:07;;;;;;;10.95;7.10;;;;;;;20.36;75.18;100204.69;5089529;28;20031;-21
2023/05/19 07:10:33;;;;;;;12.77;7.90;;;;;;;20.48;73.12;100215.19;5085011;28;20481;-18
2023/05/19 07:12:58;;;;;;;12.02;7.82;;;;;;;20.39;71.04;100208.72;5059714;28;20048;-19
2023/05/19 07:15:24;;;;;;;19.02;8.63;;;;;;;20.70;71.39;100209.38;5049008;28;20060;-19
2023/05/19 07:17:49;;;;;;;12.63;8.50;;;;;;;20.84;71.58;100204.09;5049182;28;20123;-19
2023/05/19 07:20:15;;;;;;;11.43;7.63;;;;;;;20.62;66.92;100196.44;5048845;28;20031;-20
2023/05/19 07:22:40;;;;;;;13.02;7.95;;;;;;;20.72;69.44;100209.91;5048893;28;20028;-20
2023/05/19 07:25:07;;;;;;;9.85;7.38;;;;;;;20.74;66.50;100205.00;5049000;28;20030;-19
2023/05/19 07:27:32;;;;;;;14.95;8.50;;;;;;;20.54;69.03;100195.09;5049146;28;20036;-19
2023/05/19 07:29:57;;;;;;;12.70;8.02;;;;;;;20.66;65.81;100205.63;5048720;28;20025;-20
2023/05/19 07:32:23;;;;;;;14.18;8.77;;;;;;;20.77;66.32;100207.13;5048462;28;20400;-19
2023/05/19 07:34:49;;;;;;;12.57;7.88;;;;;;;20.83;65.31;100208.72;5048762;28;20028;-19
2023/05/19 07:37:15;;;;;;;14.73;8.77;;;;;;;21.13;70.52;100206.03;5048563;28;20045;-19
2023/05/19 07:39:41;;;;;;;13.52;8.88;;;;;;;21.21;64.99;100217.06;5048692;28;20036;-19
2023/05/19 07:42:06;;;;;;;10.93;8.15;;;;;;;21.58;66.86;100203.97;5048527;28;20033;-19
2023/05/19 07:44:32;;;;;;;12.00;8.68;;;;;;;21.78;68.81;100206.44;5048316;28;20033;-19
2023/05/19 07:46:57;;;;;;;12.55;8.75;;;;;;;21.52;64.54;100197.00;5048713;28;20025;-20
2023/05/19 07:49:22;;;;;;;12.88;8.43;;;;;;;21.41;66.76;100201.66;5048672;28;20029;-19
2023/05/19 07:51:48;;;;;;;13.20;7.30;;;;;;;21.35;64.82;100210.94;5048198;28;20144;-19
2023/05/19 07:54:14;;;;;;;14.60;8.23;;;;;;;21.42;65.62;100211.44;5052415;28;20048;-19
2023/05/19 07:56:40;;;;;;;15.18;8.13;;;;;;;21.72;66.21;100212.19;5068200;28;20165;-19
2023/05/19 07:59:06;;;;;;;14.90;7.75;;;;;;;21.93;61.38;100216.31;5067126;28;20021;-24
2023/05/19 08:01:32;;;;;;;13.52;8.57;;;;;;;22.08;59.44;100221.50;5068016;28;20025;-19
2023/05/19 08:03:58;;;;;;;11.00;7.82;;;;;;;22.14;57.55;100205.16;5068272;28;20035;-19
2023/05/19 08:06:24;;;;;;;12.13;8.63;;;;;;;21.94;62.83;100204.31;5067670;28;20036;-19
2023/05/19 08:08:50;;;;;;;13.38;8.20;;;;;;;22.29;62.07;100207.69;5067946;28;20037;-20
2023/05/19 08:11:15;;;;;;;13.48;8.30;;;;;;;22.22;58.54;100204.50;5067570;28;20116;-21
2023/05/19 08:13:41;;;;;;;17.20;9.20;;;;;;;22.43;57.92;100208.59;5067270;28;20028;-19
2023/05/19 08:16:06;;;;;;;13.38;8.60;;;;;;;22.47;59.27;100216.94;5067588;28;20119;-20
2023/05/19 08:18:32;;;;;;;11.77;7.55;;;;;;;22.50;56.26;100221.00;5067291;28;20093;-19
2023/05/19 08:20:57;;;;;;;12.05;8.20;;;;;;;22.59;58.82;100219.22;5067609;28;20028;-19
2023/05/19 08:23:23;;;;;;;11.73;8.38;;;;;;;22.76;57.82;100224.94;5067553;28;20032;-19
2023/05/19 08:25:48;;;;;;;13.18;8.68;;;;;;;22.69;61.59;100227.22;5067563;28;20028;-19
2023/05/19 08:28:13;;;;;;;15.82;9.40;;;;;;;23.04;55.70;100219.59;5067604;28;20020;-19
2023/05/19 08:30:39;;;;;;;10.27;7.80;;;;;;;23.29;55.95;100220.25;5067731;28;20067;-19
2023/05/19 08:33:05;;;;;;;14.30;8.52;;;;;;;23.49;55.17;100225.31;5067546;28;20119;-21
2023/05/19 08:35:30;;;;;;;12.52;8.60;;;;;;;23.27;51.81;100224.09;5067578;28;20028;-21
2023/05/19 08:37:55;;;;;;;12.52;8.68;;;;;;;23.59;52.24;100232.47;5067697;28;20036;-19
2023/05/19 08:40:22;;;;;;;13.88;8.68;;;;;;;24.02;52.63;100222.09;5067594;28;20025;-19
2023/05/19 08:42:47;;;;;;;12.07;8.30;;;;;;;24.03;54.27;100226.44;5067269;28;20025;-18
2023/05/19 08:45:13;;;;;;;14.25;9.30;;;;;;;24.39;53.58;100222.91;5067162;28;20397;-19
2023/05/19 08:47:45;;;;;;;10.65;7.47;;;;;;;24.73;49.52;100224.34;5067483;28;20420;-19
2023/05/19 08:50:14;;;;;;;10.57;8.35;;;;;;;24.47;52.02;100222.19;5067040;28;20012;-19
2023/05/19 08:53:01;;;;;;;14.70;8.52;;;;;;;24.24;51.85;100207.72;5066637;28;20051;-19
2023/05/19 08:55:40;;;;;;;13.18;9.02;;;;;;;24.31;57.64;100212.75;5067392;28;20028;-20
2023/05/19 08:58:07;;;;;;;12.93;8.45;;;;;;;24.32;52.37;100219.81;5067274;28;20033;-19
2023/05/19 09:00:32;;;;;;;11.95;8.15;;;;;;;24.53;49.24;100224.84;5066979;28;20107;-20
2023/05/19 09:02:59;;;;;;;11.23;7.90;;;;;;;24.84;50.29;100220.22;5067580;28;20032;-19
2023/05/19 09:05:25;;;;;;;12.13;9.30;;;;;;;25.03;50.63;100227.44;5067098;28;20024;-19
2023/05/19 09:07:50;;;;;;;12.77;8.45;;;;;;;24.71;49.95;100221.13;5067103;28;20030;-19
2023/05/19 09:10:16;;;;;;;13.90;8.82;;;;;;;24.50;50.91;100209.91;5066598;28;20039;-19
2023/05/19 09:12:44;;;;;;;14.30;8.85;;;;;;;24.81;48.96;100214.63;5066307;28;20473;-19
2023/05/19 09:15:10;;;;;;;12.55;8.80;;;;;;;24.56;51.82;100194.22;5066227;28;20589;-20
2023/05/19 09:17:36;;;;;;;12.52;8.65;;;;;;;24.65;53.44;100209.53;5066859;28;20025;-20
2023/05/19 09:20:04;;;;;;;17.17;9.23;;;;;;;24.39;51.00;100198.38;5066686;28;20025;-22
2023/05/19 09:22:34;;;;;;;13.02;8.50;;;;;;;24.13;49.23;100214.53;5066816;28;20025;-19
2023/05/19 09:25:00;;;;;;;13.45;8.35;;;;;;;24.54;47.75;100216.34;5066391;28;20021;-19
2023/05/19 09:27:25;;;;;;;12.88;8.60;;;;;;;25.13;47.90;100216.25;5066390;28;20052;-20
2023/05/19 09:29:51;;;;;;;12.20;7.97;;;;;;;25.46;46.09;100210.50;5066758;28;20032;-20
2023/05/19 09:32:26;;;;;;;11.70;8.80;;;;;;;25.82;48.17;100218.47;5066464;28;20453;-20
2023/05/19 09:34:55;;;;;;;10.48;8.10;;;;;;;26.08;50.02;100212.28;5066907;28;20035;-19
2023/05/19 09:37:23;;;;;;;12.10;8.98;;;;;;;26.10;44.92;100211.97;5066204;28;20059;-19
2023/05/19 09:39:51;;;;;;;12.60;8.20;;;;;;;25.80;44.35;100198.06;5066681;28;20130;-19
2023/05/19 09:42:23;;;;;;;14.02;8.57;;;;;;;25.42;48.22;100195.88;5065946;28;20553;-19
2023/05/19 09:44:50;;;;;;;12.18;8.48;;;;;;;24.92;48.32;100205.03;5066509;28;20032;-19
2023/05/19 09:47:15;;;;;;;13.90;8.73;;;;;;;24.61;45.93;100213.19;5066404;28;20499;-19
2023/05/19 09:49:46;;;;;;;14.50;9.50;;;;;;;24.43;49.26;100193.13;5066412;28;20028;-19
2023/05/19 09:52:15;;;;;;;13.20;9.35;;;;;;;24.50;55.92;100200.91;5065988;28;20114;-19
2023/05/19 09:54:42;;;;;;;11.50;8.50;;;;;;;24.26;50.26;100201.97;5066404;28;20055;-23
2023/05/19 09:57:08;;;;;;;14.20;10.05;;;;;;;24.23;56.00;100194.41;5066112;28;20135;-19
2023/05/19 09:59:34;;;;;;;14.75;9.27;;;;;;;24.14;58.59;100194.31;5066235;28;20111;-20
2023/05/19 10:02:01;;;;;;;15.85;9.40;;;;;;;23.89;56.83;100203.88;5066107;28;20465;-19
2023/05/19 10:04:28;;;;;;;14.03;9.33;;;;;;;24.21;55.82;100196.63;5066677;28;20100;-19
2023/05/19 10:06:58;;;;;;;13.00;8.15;;;;;;;24.20;52.91;100192.31;5066122;28;20045;-19
2023/05/19 10:09:28;;;;;;;13.77;8.93;;;;;;;24.11;54.96;100191.41;5065897;28;20028;-20
2023/05/19 10:11:56;;;;;;;12.35;8.95;;;;;;;24.05;55.88;100188.81;5065993;28;20027;-19
2023/05/19 10:14:26;;;;;;;14.43;8.98;;;;;;;24.33;55.59;100188.72;5066138;28;20032;-19
2023/05/19 10:16:53;;;;;;;11.38;9.00;;;;;;;24.66;55.63;100177.59;5066017;28;20096;-19
2023/05/19 10:19:24;;;;;;;13.35;9.57;;;;;;;24.75;56.95;100174.94;5066023;28;20492;-19
2023/05/19 10:21:50;;;;;;;12.57;9.48;;;;;;;24.17;54.05;100184.72;5066170;28;20051;-20
2023/05/19 10:24:16;;;;;;;15.30;10.00;;;;;;;23.82;53.72;100177.06;5066164;28;20017;-20
2023/05/19 10:26:45;;;;;;;15.65;9.00;;;;;;;23.89;53.29;100171.19;5070268;28;20024;-19
2023/05/19 10:29:16;;;;;;;12.18;9.25;;;;;;;23.99;56.23;100173.69;5069839;28;20024;-20
2023/05/19 10:31:43;;;;;;;12.70;9.23;;;;;;;24.58;54.39;100167.44;5070050;28;20029;-19
2023/05/19 10:34:18;;;;;;;13.38;8.95;;;;;;;25.58;49.55;100180.66;5069605;28;20043;-19
2023/05/19 10:36:47;;;;;;;13.95;8.93;;;;;;;25.54;50.72;100176.97;5070036;28;20071;-19
2023/05/19 10:39:21;;;;;;;12.00;9.30;;;;;;;25.40;51.71;100168.09;5069572;28;20562;-22
2023/05/19 10:42:02;;;;;;;13.80;8.90;;;;;;;25.03;53.42;100167.41;5069914;28;20120;-18
2023/05/19 10:44:50;;;;;;;13.88;9.70;;;;;;;25.29;52.86;100172.19;5069708;28;20480;-19
2023/05/19 10:47:25;;;;;;;11.63;8.15;;;;;;;24.89;52.72;100161.22;5038978;28;20029;-19
2023/05/19 10:49:54;;;;;;;13.20;8.40;;;;;;;24.73;51.06;100153.44;5069184;28;20036;-19
2023/05/19 10:52:21;;;;;;;12.38;8.40;;;;;;;24.47;49.24;100164.94;5069377;28;20101;-19
2023/05/19 10:54:47;;;;;;;14.20;8.85;;;;;;;24.40;47.29;100183.66;5069537;28;20025;-19
2023/05/19 10:57:17;;;;;;;14.25;8.35;;;;;;;24.12;54.34;100165.78;5069330;28;20027;-19
2023/05/19 10:59:48;;;;;;;15.55;8.82;;;;;;;24.37;51.56;100169.81;5069054;28;20056;-19
2023/05/19 11:02:35;;;;;;;19.25;8.70;;;;;;;24.65;49.85;100178.72;5069345;28;20482;-19
2023/05/19 11:05:08;;;;;;;29.52;9.70;;;;;;;24.64;48.35;100177.09;5069588;28;20031;-20
2023/05/19 11:07:34;;;;;;;12.70;8.23;;;;;;;24.76;49.86;100177.34;5068780;28;20054;-19
2023/05/19 11:10:05;;;;;;;12.98;8.02;;;;;;;24.66;44.92;100177.59;5069748;28;20115;-19
2023/05/19 11:12:43;;;;;;;13.30;9.23;;;;;;;24.62;48.65;100171.16;5069437;28;20020;-19
2023/05/19 11:15:11;;;;;;;12.40;9.02;;;;;;;24.58;47.42;100162.00;5069000;28;20506;-20
2023/05/19 11:17:39;;;;;;;11.00;7.60;;;;;;;25.22;42.69;100167.19;5069001;28;20033;-19
2023/05/19 11:20:08;;;;;;;14.00;9.88;;;;;;;26.16;41.93;100175.97;5069034;28;20024;-21
2023/05/19 11:22:35;;;;;;;13.73;8.45;;;;;;;26.75;41.67;100174.69;5069175;28;20081;-22